Woodside, Louisiana
Current Conditions -  °F | °C
As of 5:15 PM on Tuesday 27 Jan 2015 (Local Time) from KHZR Reporting Station
Clear Clear  
Wind Chill: 67°   Ceiling: Unl
Heat Index: 67°   Visibility: 10mi
Dew Point: 37°   Wind: 8mph
Humidity: 32%   Direction: 310°NW
Pressure: 30.11"   Gusts: NA
Location:  30.6648°N, 91.7944°W
Report Text: KHZR 272315Z AUTO 31007KT 10SM CLR 20/03 A3011 RMK AO2 T01960025
Loading
Personal Weather Stations






























Interactive Weather Map New forecast layout! Learn more

10-Day Weather Forecast

Advertisements
Track Severe Weather on mobile